sensor_id;sensor_type;location;lat;lon;timestamp;P1;durP1;ratioP1;P2;durP2;ratioP2
12826;SDS011;66927;48.812;9.118;2024-01-11T00:01:09;31.53;;;19.97;;
12826;SDS011;66927;48.812;9.118;2024-01-11T00:03:35;31.70;;;21.33;;
12826;SDS011;66927;48.812;9.118;2024-01-11T00:06:02;32.60;;;19.97;;
12826;SDS011;66927;48.812;9.118;2024-01-11T00:08:29;35.27;;;20.60;;
12826;SDS011;66927;48.812;9.118;2024-01-11T00:10:55;31.37;;;20.73;;
12826;SDS011;66927;48.812;9.118;2024-01-11T00:13:20;33.77;;;20.70;;
12826;SDS011;66927;48.812;9.118;2024-01-11T00:15:46;31.27;;;20.03;;
12826;SDS011;66927;48.812;9.118;2024-01-11T00:18:12;29.83;;;18.93;;
12826;SDS011;66927;48.812;9.118;2024-01-11T00:20:37;31.40;;;19.90;;
12826;SDS011;66927;48.812;9.118;2024-01-11T00:23:03;31.00;;;20.40;;
12826;SDS011;66927;48.812;9.118;2024-01-11T00:25:28;30.63;;;20.50;;
12826;SDS011;66927;48.812;9.118;2024-01-11T00:27:54;32.40;;;20.37;;
12826;SDS011;66927;48.812;9.118;2024-01-11T00:30:20;35.10;;;20.93;;
12826;SDS011;66927;48.812;9.118;2024-01-11T00:32:45;30.40;;;20.40;;
12826;SDS011;66927;48.812;9.118;2024-01-11T00:35:11;31.87;;;20.67;;
12826;SDS011;66927;48.812;9.118;2024-01-11T00:37:37;35.17;;;21.13;;
12826;SDS011;66927;48.812;9.118;2024-01-11T00:40:02;32.17;;;20.67;;
12826;SDS011;66927;48.812;9.118;2024-01-11T00:42:29;31.70;;;21.13;;
12826;SDS011;66927;48.812;9.118;2024-01-11T00:44:55;31.30;;;22.17;;
12826;SDS011;66927;48.812;9.118;2024-01-11T00:47:21;35.87;;;21.20;;
12826;SDS011;66927;48.812;9.118;2024-01-11T00:49:48;34.87;;;22.20;;
12826;SDS011;66927;48.812;9.118;2024-01-11T00:52:13;32.10;;;20.33;;
12826;SDS011;66927;48.812;9.118;2024-01-11T00:54:39;33.60;;;21.80;;
12826;SDS011;66927;48.812;9.118;2024-01-11T00:57:05;38.40;;;22.00;;
12826;SDS011;66927;48.812;9.118;2024-01-11T00:59:31;35.57;;;22.03;;
12826;SDS011;66927;48.812;9.118;2024-01-11T01:01:57;34.97;;;20.83;;
12826;SDS011;66927;48.812;9.118;2024-01-11T01:04:22;34.03;;;21.80;;
12826;SDS011;66927;48.812;9.118;2024-01-11T01:06:48;35.80;;;22.00;;
12826;SDS011;66927;48.812;9.118;2024-01-11T01:09:13;33.37;;;21.80;;
12826;SDS011;66927;48.812;9.118;2024-01-11T01:11:40;35.80;;;21.60;;
12826;SDS011;66927;48.812;9.118;2024-01-11T01:14:05;31.80;;;21.17;;
12826;SDS011;66927;48.812;9.118;2024-01-11T01:16:31;33.30;;;20.90;;
12826;SDS011;66927;48.812;9.118;2024-01-11T01:18:56;34.53;;;22.23;;
12826;SDS011;66927;48.812;9.118;2024-01-11T01:21:22;34.20;;;21.47;;
12826;SDS011;66927;48.812;9.118;2024-01-11T01:23:48;35.47;;;21.20;;
12826;SDS011;66927;48.812;9.118;2024-01-11T01:26:15;32.57;;;20.07;;
12826;SDS011;66927;48.812;9.118;2024-01-11T01:28:41;34.10;;;21.27;;
12826;SDS011;66927;48.812;9.118;2024-01-11T01:31:06;34.33;;;21.97;;
12826;SDS011;66927;48.812;9.118;2024-01-11T01:33:32;34.50;;;22.50;;
12826;SDS011;66927;48.812;9.118;2024-01-11T01:35:57;39.47;;;22.20;;
12826;SDS011;66927;48.812;9.118;2024-01-11T01:38:23;31.00;;;20.07;;
12826;SDS011;66927;48.812;9.118;2024-01-11T01:40:49;36.80;;;23.13;;
12826;SDS011;66927;48.812;9.118;2024-01-11T01:43:14;34.07;;;20.97;;
12826;SDS011;66927;48.812;9.118;2024-01-11T01:45:40;33.33;;;20.43;;
12826;SDS011;66927;48.812;9.118;2024-01-11T01:48:06;38.17;;;21.73;;
12826;SDS011;66927;48.812;9.118;2024-01-11T01:50:32;33.83;;;20.63;;
12826;SDS011;66927;48.812;9.118;2024-01-11T01:52:58;34.00;;;21.43;;
12826;SDS011;66927;48.812;9.118;2024-01-11T01:55:25;32.60;;;21.03;;
12826;SDS011;66927;48.812;9.118;2024-01-11T01:57:52;31.80;;;21.17;;
12826;SDS011;66927;48.812;9.118;2024-01-11T02:00:19;36.00;;;21.97;;
12826;SDS011;66927;48.812;9.118;2024-01-11T02:02:45;32.43;;;20.80;;
12826;SDS011;66927;48.812;9.118;2024-01-11T02:05:15;34.37;;;21.80;;
12826;SDS011;66927;48.812;9.118;2024-01-11T02:07:42;35.03;;;21.27;;
12826;SDS011;66927;48.812;9.118;2024-01-11T02:10:09;33.20;;;21.50;;
12826;SDS011;66927;48.812;9.118;2024-01-11T02:12:35;33.60;;;21.13;;
12826;SDS011;66927;48.812;9.118;2024-01-11T02:15:02;33.57;;;21.53;;
12826;SDS011;66927;48.812;9.118;2024-01-11T02:17:30;33.87;;;21.27;;
12826;SDS011;66927;48.812;9.118;2024-01-11T02:19:56;36.33;;;21.27;;
12826;SDS011;66927;48.812;9.118;2024-01-11T02:22:23;36.20;;;22.23;;
12826;SDS011;66927;48.812;9.118;2024-01-11T02:24:53;35.07;;;20.73;;
12826;SDS011;66927;48.812;9.118;2024-01-11T02:27:23;33.43;;;21.43;;
12826;SDS011;66927;48.812;9.118;2024-01-11T02:29:49;35.33;;;21.80;;
12826;SDS011;66927;48.812;9.118;2024-01-11T02:32:14;34.10;;;21.50;;
12826;SDS011;66927;48.812;9.118;2024-01-11T02:34:40;33.90;;;19.43;;
12826;SDS011;66927;48.812;9.118;2024-01-11T02:37:07;35.90;;;21.17;;
12826;SDS011;66927;48.812;9.118;2024-01-11T02:39:33;36.23;;;21.93;;
12826;SDS011;66927;48.812;9.118;2024-01-11T02:41:59;32.10;;;20.27;;
12826;SDS011;66927;48.812;9.118;2024-01-11T02:44:25;28.57;;;19.87;;
12826;SDS011;66927;48.812;9.118;2024-01-11T02:46:51;33.13;;;20.27;;
12826;SDS011;66927;48.812;9.118;2024-01-11T02:49:16;30.60;;;20.17;;
12826;SDS011;66927;48.812;9.118;2024-01-11T02:51:42;33.20;;;20.40;;
12826;SDS011;66927;48.812;9.118;2024-01-11T02:54:08;35.20;;;20.40;;
12826;SDS011;66927;48.812;9.118;2024-01-11T02:56:34;32.30;;;19.93;;
12826;SDS011;66927;48.812;9.118;2024-01-11T02:58:59;37.67;;;20.80;;
12826;SDS011;66927;48.812;9.118;2024-01-11T03:01:26;36.17;;;21.60;;
12826;SDS011;66927;48.812;9.118;2024-01-11T03:03:52;33.73;;;20.70;;
12826;SDS011;66927;48.812;9.118;2024-01-11T03:06:18;32.30;;;19.93;;
12826;SDS011;66927;48.812;9.118;2024-01-11T03:08:46;35.57;;;21.37;;
12826;SDS011;66927;48.812;9.118;2024-01-11T03:11:13;34.53;;;22.03;;
12826;SDS011;66927;48.812;9.118;2024-01-11T03:13:39;32.30;;;20.53;;
12826;SDS011;66927;48.812;9.118;2024-01-11T03:16:05;37.53;;;20.40;;
12826;SDS011;66927;48.812;9.118;2024-01-11T03:18:31;30.03;;;20.33;;
12826;SDS011;66927;48.812;9.118;2024-01-11T03:20:57;32.77;;;20.60;;
12826;SDS011;66927;48.812;9.118;2024-01-11T03:23:22;35.67;;;21.90;;
12826;SDS011;66927;48.812;9.118;2024-01-11T03:25:48;34.73;;;20.80;;
12826;SDS011;66927;48.812;9.118;2024-01-11T03:28:14;37.33;;;21.33;;
12826;SDS011;66927;48.812;9.118;2024-01-11T03:30:40;37.37;;;21.53;;
12826;SDS011;66927;48.812;9.118;2024-01-11T03:33:06;33.30;;;21.27;;
12826;SDS011;66927;48.812;9.118;2024-01-11T03:35:31;32.13;;;20.57;;
12826;SDS011;66927;48.812;9.118;2024-01-11T03:37:57;35.80;;;22.17;;
12826;SDS011;66927;48.812;9.118;2024-01-11T03:40:23;35.87;;;22.30;;
12826;SDS011;66927;48.812;9.118;2024-01-11T03:42:50;31.47;;;21.10;;
12826;SDS011;66927;48.812;9.118;2024-01-11T03:45:17;35.57;;;21.53;;
12826;SDS011;66927;48.812;9.118;2024-01-11T03:47:44;34.03;;;21.33;;
12826;SDS011;66927;48.812;9.118;2024-01-11T03:50:10;34.00;;;21.20;;
12826;SDS011;66927;48.812;9.118;2024-01-11T03:52:36;33.67;;;21.30;;
12826;SDS011;66927;48.812;9.118;2024-01-11T03:55:01;32.53;;;21.73;;
12826;SDS011;66927;48.812;9.118;2024-01-11T03:57:27;36.43;;;22.30;;
12826;SDS011;66927;48.812;9.118;2024-01-11T03:59:53;34.47;;;21.30;;
12826;SDS011;66927;48.812;9.118;2024-01-11T04:02:18;30.70;;;20.77;;
12826;SDS011;66927;48.812;9.118;2024-01-11T04:04:44;31.10;;;20.17;;
12826;SDS011;66927;48.812;9.118;2024-01-11T04:07:10;32.93;;;20.23;;
12826;SDS011;66927;48.812;9.118;2024-01-11T04:09:37;32.03;;;20.90;;
12826;SDS011;66927;48.812;9.118;2024-01-11T04:12:03;34.47;;;21.43;;
12826;SDS011;66927;48.812;9.118;2024-01-11T04:14:29;32.30;;;20.57;;
12826;SDS011;66927;48.812;9.118;2024-01-11T04:16:56;33.97;;;21.43;;
12826;SDS011;66927;48.812;9.118;2024-01-11T04:19:21;36.07;;;22.57;;
12826;SDS011;66927;48.812;9.118;2024-01-11T04:21:47;36.00;;;21.63;;
12826;SDS011;66927;48.812;9.118;2024-01-11T04:24:12;33.90;;;21.80;;
12826;SDS011;66927;48.812;9.118;2024-01-11T04:26:38;38.77;;;22.23;;
12826;SDS011;66927;48.812;9.118;2024-01-11T04:29:04;33.77;;;22.00;;
12826;SDS011;66927;48.812;9.118;2024-01-11T04:31:30;35.10;;;20.40;;
12826;SDS011;66927;48.812;9.118;2024-01-11T04:33:57;34.83;;;22.43;;
12826;SDS011;66927;48.812;9.118;2024-01-11T04:36:23;33.33;;;20.73;;
12826;SDS011;66927;48.812;9.118;2024-01-11T04:38:48;33.40;;;19.80;;
12826;SDS011;66927;48.812;9.118;2024-01-11T04:41:14;35.50;;;22.47;;
12826;SDS011;66927;48.812;9.118;2024-01-11T04:43:41;35.07;;;21.33;;
12826;SDS011;66927;48.812;9.118;2024-01-11T04:46:14;34.27;;;21.60;;
12826;SDS011;66927;48.812;9.118;2024-01-11T04:48:44;34.53;;;21.83;;
12826;SDS011;66927;48.812;9.118;2024-01-11T04:51:11;39.80;;;23.60;;
12826;SDS011;66927;48.812;9.118;2024-01-11T04:53:38;37.67;;;21.83;;
12826;SDS011;66927;48.812;9.118;2024-01-11T04:56:09;32.83;;;22.23;;
12826;SDS011;66927;48.812;9.118;2024-01-11T04:58:40;38.00;;;22.53;;
12826;SDS011;66927;48.812;9.118;2024-01-11T05:01:06;29.83;;;20.63;;
12826;SDS011;66927;48.812;9.118;2024-01-11T05:03:36;34.83;;;22.33;;
12826;SDS011;66927;48.812;9.118;2024-01-11T05:06:01;34.73;;;22.73;;
12826;SDS011;66927;48.812;9.118;2024-01-11T05:08:28;34.73;;;20.97;;
12826;SDS011;66927;48.812;9.118;2024-01-11T05:10:54;35.50;;;21.80;;
12826;SDS011;66927;48.812;9.118;2024-01-11T05:13:20;35.43;;;23.10;;
12826;SDS011;66927;48.812;9.118;2024-01-11T05:15:48;33.83;;;21.53;;
12826;SDS011;66927;48.812;9.118;2024-01-11T05:18:14;37.17;;;21.93;;
12826;SDS011;66927;48.812;9.118;2024-01-11T05:20:40;34.20;;;22.00;;
12826;SDS011;66927;48.812;9.118;2024-01-11T05:23:06;37.97;;;22.50;;
12826;SDS011;66927;48.812;9.118;2024-01-11T05:25:31;37.67;;;21.87;;
12826;SDS011;66927;48.812;9.118;2024-01-11T05:28:00;33.67;;;20.60;;
12826;SDS011;66927;48.812;9.118;2024-01-11T05:30:27;34.83;;;21.97;;
12826;SDS011;66927;48.812;9.118;2024-01-11T05:32:53;32.83;;;21.53;;
12826;SDS011;66927;48.812;9.118;2024-01-11T05:35:19;32.67;;;22.07;;
12826;SDS011;66927;48.812;9.118;2024-01-11T05:37:45;34.13;;;21.63;;
12826;SDS011;66927;48.812;9.118;2024-01-11T05:40:10;35.20;;;22.33;;
12826;SDS011;66927;48.812;9.118;2024-01-11T05:42:36;34.80;;;21.13;;
12826;SDS011;66927;48.812;9.118;2024-01-11T05:45:03;34.33;;;21.27;;
12826;SDS011;66927;48.812;9.118;2024-01-11T05:47:30;36.03;;;22.30;;
12826;SDS011;66927;48.812;9.118;2024-01-11T05:49:55;38.97;;;21.80;;
12826;SDS011;66927;48.812;9.118;2024-01-11T05:52:21;40.17;;;23.30;;
12826;SDS011;66927;48.812;9.118;2024-01-11T05:54:47;42.03;;;23.83;;
12826;SDS011;66927;48.812;9.118;2024-01-11T05:57:12;39.90;;;22.60;;
12826;SDS011;66927;48.812;9.118;2024-01-11T05:59:43;40.23;;;23.33;;
12826;SDS011;66927;48.812;9.118;2024-01-11T06:02:12;36.17;;;23.37;;
12826;SDS011;66927;48.812;9.118;2024-01-11T06:04:38;35.63;;;21.67;;
12826;SDS011;66927;48.812;9.118;2024-01-11T06:07:04;37.23;;;22.77;;
12826;SDS011;66927;48.812;9.118;2024-01-11T06:09:37;37.77;;;23.67;;
12826;SDS011;66927;48.812;9.118;2024-01-11T06:13:06;32.13;;;20.83;;
12826;SDS011;66927;48.812;9.118;2024-01-11T06:15:32;34.27;;;21.27;;
12826;SDS011;66927;48.812;9.118;2024-01-11T06:17:57;36.77;;;22.73;;
12826;SDS011;66927;48.812;9.118;2024-01-11T06:20:23;36.13;;;22.23;;
12826;SDS011;66927;48.812;9.118;2024-01-11T06:22:49;39.87;;;23.67;;
12826;SDS011;66927;48.812;9.118;2024-01-11T06:25:14;36.73;;;21.07;;
12826;SDS011;66927;48.812;9.118;2024-01-11T06:27:41;37.90;;;23.57;;
12826;SDS011;66927;48.812;9.118;2024-01-11T06:30:08;38.20;;;22.87;;
12826;SDS011;66927;48.812;9.118;2024-01-11T06:32:35;41.23;;;23.27;;
12826;SDS011;66927;48.812;9.118;2024-01-11T06:35:01;36.30;;;21.90;;
12826;SDS011;66927;48.812;9.118;2024-01-11T06:37:27;34.67;;;22.10;;
12826;SDS011;66927;48.812;9.118;2024-01-11T06:39:53;38.30;;;21.50;;
12826;SDS011;66927;48.812;9.118;2024-01-11T06:42:19;37.40;;;22.37;;
12826;SDS011;66927;48.812;9.118;2024-01-11T06:44:45;35.03;;;22.00;;
12826;SDS011;66927;48.812;9.118;2024-01-11T06:47:10;36.83;;;23.20;;
12826;SDS011;66927;48.812;9.118;2024-01-11T06:49:39;38.43;;;22.77;;
12826;SDS011;66927;48.812;9.118;2024-01-11T06:52:05;39.80;;;25.17;;
12826;SDS011;66927;48.812;9.118;2024-01-11T06:54:31;37.80;;;23.27;;
12826;SDS011;66927;48.812;9.118;2024-01-11T06:56:57;35.37;;;23.47;;
12826;SDS011;66927;48.812;9.118;2024-01-11T06:59:23;37.90;;;23.90;;
12826;SDS011;66927;48.812;9.118;2024-01-11T07:01:50;35.03;;;21.70;;
12826;SDS011;66927;48.812;9.118;2024-01-11T07:04:16;38.50;;;22.47;;
12826;SDS011;66927;48.812;9.118;2024-01-11T07:06:43;41.20;;;24.10;;
12826;SDS011;66927;48.812;9.118;2024-01-11T07:09:09;35.40;;;21.77;;
12826;SDS011;66927;48.812;9.118;2024-01-11T07:11:36;38.60;;;22.57;;
12826;SDS011;66927;48.812;9.118;2024-01-11T07:14:02;33.47;;;22.17;;
12826;SDS011;66927;48.812;9.118;2024-01-11T07:16:29;76.73;;;45.87;;
12826;SDS011;66927;48.812;9.118;2024-01-11T07:18:55;51.13;;;32.87;;
12826;SDS011;66927;48.812;9.118;2024-01-11T07:21:22;37.07;;;22.37;;
12826;SDS011;66927;48.812;9.118;2024-01-11T07:24:00;37.20;;;22.60;;
12826;SDS011;66927;48.812;9.118;2024-01-11T07:26:26;38.17;;;21.97;;
12826;SDS011;66927;48.812;9.118;2024-01-11T07:28:53;36.57;;;21.93;;
12826;SDS011;66927;48.812;9.118;2024-01-11T07:31:21;36.37;;;21.97;;
12826;SDS011;66927;48.812;9.118;2024-01-11T07:33:47;33.20;;;21.63;;
12826;SDS011;66927;48.812;9.118;2024-01-11T07:36:13;36.57;;;21.20;;
12826;SDS011;66927;48.812;9.118;2024-01-11T07:38:39;40.33;;;22.87;;
12826;SDS011;66927;48.812;9.118;2024-01-11T07:41:05;38.77;;;23.53;;
12826;SDS011;66927;48.812;9.118;2024-01-11T07:43:31;37.07;;;23.00;;
12826;SDS011;66927;48.812;9.118;2024-01-11T07:46:00;40.50;;;23.57;;
12826;SDS011;66927;48.812;9.118;2024-01-11T07:48:30;38.47;;;23.27;;
12826;SDS011;66927;48.812;9.118;2024-01-11T07:50:57;39.83;;;24.93;;
12826;SDS011;66927;48.812;9.118;2024-01-11T07:53:43;41.10;;;24.67;;
12826;SDS011;66927;48.812;9.118;2024-01-11T07:56:09;40.10;;;24.27;;
12826;SDS011;66927;48.812;9.118;2024-01-11T07:58:35;40.10;;;24.50;;
12826;SDS011;66927;48.812;9.118;2024-01-11T08:01:02;37.47;;;22.93;;
12826;SDS011;66927;48.812;9.118;2024-01-11T08:03:29;42.23;;;24.23;;
12826;SDS011;66927;48.812;9.118;2024-01-11T08:05:55;39.63;;;24.23;;
12826;SDS011;66927;48.812;9.118;2024-01-11T08:08:20;40.13;;;24.50;;
12826;SDS011;66927;48.812;9.118;2024-01-11T08:10:47;40.70;;;25.30;;
12826;SDS011;66927;48.812;9.118;2024-01-11T08:13:15;36.57;;;23.97;;
12826;SDS011;66927;48.812;9.118;2024-01-11T08:15:40;42.13;;;24.37;;
12826;SDS011;66927;48.812;9.118;2024-01-11T08:18:07;40.07;;;25.40;;
12826;SDS011;66927;48.812;9.118;2024-01-11T08:20:33;41.07;;;24.33;;
12826;SDS011;66927;48.812;9.118;2024-01-11T08:22:59;39.43;;;23.83;;
12826;SDS011;66927;48.812;9.118;2024-01-11T08:25:25;41.13;;;25.43;;
12826;SDS011;66927;48.812;9.118;2024-01-11T08:27:50;38.27;;;25.67;;
12826;SDS011;66927;48.812;9.118;2024-01-11T08:30:16;38.10;;;23.70;;
12826;SDS011;66927;48.812;9.118;2024-01-11T08:32:42;47.33;;;24.53;;
12826;SDS011;66927;48.812;9.118;2024-01-11T08:35:11;42.63;;;25.70;;
12826;SDS011;66927;48.812;9.118;2024-01-11T08:37:37;42.27;;;24.53;;
12826;SDS011;66927;48.812;9.118;2024-01-11T08:40:04;35.40;;;24.53;;
12826;SDS011;66927;48.812;9.118;2024-01-11T08:42:31;39.77;;;25.47;;
12826;SDS011;66927;48.812;9.118;2024-01-11T08:44:58;45.70;;;24.90;;
12826;SDS011;66927;48.812;9.118;2024-01-11T08:47:25;44.83;;;25.13;;
12826;SDS011;66927;48.812;9.118;2024-01-11T08:49:50;40.47;;;24.90;;
12826;SDS011;66927;48.812;9.118;2024-01-11T08:52:16;38.43;;;23.77;;
12826;SDS011;66927;48.812;9.118;2024-01-11T08:54:42;41.70;;;24.97;;
12826;SDS011;66927;48.812;9.118;2024-01-11T08:57:07;39.67;;;24.17;;
12826;SDS011;66927;48.812;9.118;2024-01-11T08:59:33;40.60;;;25.13;;
12826;SDS011;66927;48.812;9.118;2024-01-11T09:01:58;40.67;;;25.17;;
12826;SDS011;66927;48.812;9.118;2024-01-11T09:04:24;38.40;;;24.23;;
12826;SDS011;66927;48.812;9.118;2024-01-11T09:06:50;37.53;;;24.43;;
12826;SDS011;66927;48.812;9.118;2024-01-11T09:09:15;41.47;;;25.83;;
12826;SDS011;66927;48.812;9.118;2024-01-11T09:11:42;43.47;;;26.43;;
12826;SDS011;66927;48.812;9.118;2024-01-11T09:14:07;40.30;;;25.33;;
12826;SDS011;66927;48.812;9.118;2024-01-11T09:16:36;37.73;;;23.90;;
12826;SDS011;66927;48.812;9.118;2024-01-11T09:19:02;37.23;;;25.23;;
12826;SDS011;66927;48.812;9.118;2024-01-11T09:21:27;42.93;;;25.77;;
12826;SDS011;66927;48.812;9.118;2024-01-11T09:23:53;40.23;;;25.17;;
12826;SDS011;66927;48.812;9.118;2024-01-11T09:26:19;35.90;;;24.03;;
12826;SDS011;66927;48.812;9.118;2024-01-11T09:28:45;43.20;;;25.43;;
12826;SDS011;66927;48.812;9.118;2024-01-11T09:31:11;38.17;;;24.47;;
12826;SDS011;66927;48.812;9.118;2024-01-11T09:33:37;36.00;;;23.43;;
12826;SDS011;66927;48.812;9.118;2024-01-11T09:36:03;44.87;;;26.87;;
12826;SDS011;66927;48.812;9.118;2024-01-11T09:38:29;37.90;;;25.50;;
12826;SDS011;66927;48.812;9.118;2024-01-11T09:41:07;40.73;;;26.80;;
12826;SDS011;66927;48.812;9.118;2024-01-11T09:43:36;35.80;;;24.60;;
12826;SDS011;66927;48.812;9.118;2024-01-11T09:46:03;38.40;;;25.43;;
12826;SDS011;66927;48.812;9.118;2024-01-11T09:48:33;40.80;;;25.23;;
12826;SDS011;66927;48.812;9.118;2024-01-11T09:51:01;39.27;;;25.90;;
12826;SDS011;66927;48.812;9.118;2024-01-11T09:53:28;37.70;;;24.60;;
12826;SDS011;66927;48.812;9.118;2024-01-11T09:55:58;37.37;;;25.33;;
12826;SDS011;66927;48.812;9.118;2024-01-11T09:58:24;41.37;;;26.67;;
12826;SDS011;66927;48.812;9.118;2024-01-11T10:00:53;42.53;;;25.30;;
12826;SDS011;66927;48.812;9.118;2024-01-11T10:03:20;41.93;;;25.87;;
12826;SDS011;66927;48.812;9.118;2024-01-11T10:05:48;40.17;;;25.30;;
12826;SDS011;66927;48.812;9.118;2024-01-11T10:08:17;39.43;;;26.77;;
12826;SDS011;66927;48.812;9.118;2024-01-11T10:10:47;40.33;;;26.17;;
12826;SDS011;66927;48.812;9.118;2024-01-11T10:13:13;42.03;;;27.33;;
12826;SDS011;66927;48.812;9.118;2024-01-11T10:15:42;35.93;;;25.77;;
12826;SDS011;66927;48.812;9.118;2024-01-11T10:18:08;42.87;;;25.90;;
12826;SDS011;66927;48.812;9.118;2024-01-11T10:20:34;39.50;;;25.43;;
12826;SDS011;66927;48.812;9.118;2024-01-11T10:23:02;39.67;;;25.80;;
12826;SDS011;66927;48.812;9.118;2024-01-11T10:25:28;43.63;;;26.57;;
12826;SDS011;66927;48.812;9.118;2024-01-11T10:27:54;41.30;;;27.37;;
12826;SDS011;66927;48.812;9.118;2024-01-11T10:30:19;40.80;;;26.20;;
12826;SDS011;66927;48.812;9.118;2024-01-11T10:32:48;42.63;;;27.20;;
12826;SDS011;66927;48.812;9.118;2024-01-11T10:35:14;39.63;;;27.10;;
12826;SDS011;66927;48.812;9.118;2024-01-11T10:37:42;37.10;;;25.03;;
12826;SDS011;66927;48.812;9.118;2024-01-11T10:40:09;43.40;;;26.00;;
12826;SDS011;66927;48.812;9.118;2024-01-11T10:42:44;43.10;;;27.00;;
12826;SDS011;66927;48.812;9.118;2024-01-11T10:45:16;39.40;;;26.67;;
12826;SDS011;66927;48.812;9.118;2024-01-11T10:50:15;41.87;;;26.93;;
12826;SDS011;66927;48.812;9.118;2024-01-11T10:52:44;42.50;;;27.50;;
12826;SDS011;66927;48.812;9.118;2024-01-11T10:55:33;43.23;;;27.43;;
12826;SDS011;66927;48.812;9.118;2024-01-11T10:58:00;36.63;;;26.13;;
12826;SDS011;66927;48.812;9.118;2024-01-11T11:00:29;39.00;;;24.97;;
12826;SDS011;66927;48.812;9.118;2024-01-11T11:02:55;42.27;;;27.73;;
12826;SDS011;66927;48.812;9.118;2024-01-11T11:05:25;45.30;;;28.97;;
12826;SDS011;66927;48.812;9.118;2024-01-11T11:07:52;39.27;;;27.60;;
12826;SDS011;66927;48.812;9.118;2024-01-11T11:10:19;43.17;;;26.90;;
12826;SDS011;66927;48.812;9.118;2024-01-11T11:12:46;44.80;;;27.77;;
12826;SDS011;66927;48.812;9.118;2024-01-11T11:15:14;43.33;;;27.50;;
12826;SDS011;66927;48.812;9.118;2024-01-11T11:17:40;39.07;;;26.97;;
12826;SDS011;66927;48.812;9.118;2024-01-11T11:20:07;47.33;;;27.93;;
12826;SDS011;66927;48.812;9.118;2024-01-11T11:22:34;43.33;;;28.30;;
12826;SDS011;66927;48.812;9.118;2024-01-11T11:25:04;42.73;;;28.30;;
12826;SDS011;66927;48.812;9.118;2024-01-11T11:27:39;39.10;;;26.20;;
12826;SDS011;66927;48.812;9.118;2024-01-11T11:30:06;40.47;;;27.73;;
12826;SDS011;66927;48.812;9.118;2024-01-11T11:32:37;42.20;;;27.80;;
12826;SDS011;66927;48.812;9.118;2024-01-11T11:35:04;38.80;;;25.33;;
12826;SDS011;66927;48.812;9.118;2024-01-11T11:37:30;37.90;;;26.50;;
12826;SDS011;66927;48.812;9.118;2024-01-11T11:39:59;41.33;;;28.20;;
12826;SDS011;66927;48.812;9.118;2024-01-11T11:42:25;39.77;;;26.90;;
12826;SDS011;66927;48.812;9.118;2024-01-11T11:45:02;41.27;;;27.17;;
12826;SDS011;66927;48.812;9.118;2024-01-11T11:47:35;43.33;;;28.73;;
12826;SDS011;66927;48.812;9.118;2024-01-11T11:52:35;43.50;;;28.13;;
12826;SDS011;66927;48.812;9.118;2024-01-11T11:55:02;37.37;;;26.43;;
12826;SDS011;66927;48.812;9.118;2024-01-11T11:57:29;39.80;;;27.70;;
12826;SDS011;66927;48.812;9.118;2024-01-11T11:59:55;39.30;;;27.80;;
12826;SDS011;66927;48.812;9.118;2024-01-11T12:02:23;41.13;;;28.23;;
12826;SDS011;66927;48.812;9.118;2024-01-11T12:04:50;42.03;;;28.13;;
12826;SDS011;66927;48.812;9.118;2024-01-11T12:07:16;61.77;;;40.80;;
12826;SDS011;66927;48.812;9.118;2024-01-11T12:09:42;43.70;;;31.07;;
12826;SDS011;66927;48.812;9.118;2024-01-11T12:12:07;36.10;;;26.40;;
12826;SDS011;66927;48.812;9.118;2024-01-11T12:14:34;42.30;;;29.20;;
12826;SDS011;66927;48.812;9.118;2024-01-11T12:17:00;38.07;;;28.00;;
12826;SDS011;66927;48.812;9.118;2024-01-11T12:19:27;43.20;;;28.67;;
12826;SDS011;66927;48.812;9.118;2024-01-11T12:21:53;37.40;;;27.63;;
12826;SDS011;66927;48.812;9.118;2024-01-11T12:24:19;41.80;;;29.10;;
12826;SDS011;66927;48.812;9.118;2024-01-11T12:26:48;38.00;;;27.63;;
12826;SDS011;66927;48.812;9.118;2024-01-11T12:29:17;36.73;;;26.73;;
12826;SDS011;66927;48.812;9.118;2024-01-11T12:31:44;40.73;;;27.30;;
12826;SDS011;66927;48.812;9.118;2024-01-11T12:34:11;40.60;;;27.50;;
12826;SDS011;66927;48.812;9.118;2024-01-11T12:36:37;42.67;;;28.83;;
12826;SDS011;66927;48.812;9.118;2024-01-11T12:39:03;40.70;;;28.40;;
12826;SDS011;66927;48.812;9.118;2024-01-11T12:41:31;40.33;;;28.27;;
12826;SDS011;66927;48.812;9.118;2024-01-11T12:43:58;39.50;;;27.30;;
12826;SDS011;66927;48.812;9.118;2024-01-11T12:46:27;35.03;;;26.10;;
12826;SDS011;66927;48.812;9.118;2024-01-11T12:48:52;84.53;;;56.17;;
12826;SDS011;66927;48.812;9.118;2024-01-11T12:51:18;46.27;;;30.77;;
12826;SDS011;66927;48.812;9.118;2024-01-11T12:53:45;38.73;;;28.33;;
12826;SDS011;66927;48.812;9.118;2024-01-11T12:56:12;42.20;;;28.10;;
12826;SDS011;66927;48.812;9.118;2024-01-11T12:58:40;44.70;;;29.87;;
12826;SDS011;66927;48.812;9.118;2024-01-11T13:01:06;39.50;;;27.30;;
12826;SDS011;66927;48.812;9.118;2024-01-11T13:03:33;42.67;;;28.33;;
12826;SDS011;66927;48.812;9.118;2024-01-11T13:05:59;41.13;;;27.77;;
12826;SDS011;66927;48.812;9.118;2024-01-11T13:08:25;38.17;;;26.87;;
12826;SDS011;66927;48.812;9.118;2024-01-11T13:10:52;38.77;;;26.87;;
12826;SDS011;66927;48.812;9.118;2024-01-11T13:13:17;38.27;;;27.30;;
12826;SDS011;66927;48.812;9.118;2024-01-11T13:15:44;43.53;;;27.80;;
12826;SDS011;66927;48.812;9.118;2024-01-11T13:18:11;41.27;;;27.40;;
12826;SDS011;66927;48.812;9.118;2024-01-11T13:20:36;36.60;;;25.47;;
12826;SDS011;66927;48.812;9.118;2024-01-11T13:23:20;40.80;;;26.63;;
12826;SDS011;66927;48.812;9.118;2024-01-11T13:25:47;40.30;;;26.93;;
12826;SDS011;66927;48.812;9.118;2024-01-11T13:28:17;40.30;;;28.13;;
12826;SDS011;66927;48.812;9.118;2024-01-11T13:30:44;38.13;;;29.00;;
12826;SDS011;66927;48.812;9.118;2024-01-11T13:33:10;45.80;;;28.40;;
12826;SDS011;66927;48.812;9.118;2024-01-11T13:35:37;42.17;;;27.57;;
12826;SDS011;66927;48.812;9.118;2024-01-11T13:38:03;42.77;;;28.40;;
12826;SDS011;66927;48.812;9.118;2024-01-11T13:40:30;41.93;;;28.93;;
12826;SDS011;66927;48.812;9.118;2024-01-11T13:42:56;47.87;;;27.30;;
12826;SDS011;66927;48.812;9.118;2024-01-11T13:45:24;38.87;;;28.03;;
12826;SDS011;66927;48.812;9.118;2024-01-11T13:47:50;39.67;;;27.40;;
12826;SDS011;66927;48.812;9.118;2024-01-11T13:50:18;37.50;;;26.93;;
12826;SDS011;66927;48.812;9.118;2024-01-11T13:52:44;43.40;;;28.30;;
12826;SDS011;66927;48.812;9.118;2024-01-11T13:55:11;45.20;;;28.60;;
12826;SDS011;66927;48.812;9.118;2024-01-11T13:57:37;44.57;;;28.77;;
12826;SDS011;66927;48.812;9.118;2024-01-11T14:00:03;40.77;;;27.47;;
12826;SDS011;66927;48.812;9.118;2024-01-11T14:02:30;41.17;;;26.83;;
12826;SDS011;66927;48.812;9.118;2024-01-11T14:04:58;43.03;;;28.17;;
12826;SDS011;66927;48.812;9.118;2024-01-11T14:07:23;45.83;;;28.70;;
12826;SDS011;66927;48.812;9.118;2024-01-11T14:09:49;41.67;;;28.60;;
12826;SDS011;66927;48.812;9.118;2024-01-11T14:12:17;44.03;;;28.50;;
12826;SDS011;66927;48.812;9.118;2024-01-11T14:14:43;43.87;;;28.73;;
12826;SDS011;66927;48.812;9.118;2024-01-11T14:17:09;43.77;;;28.80;;
12826;SDS011;66927;48.812;9.118;2024-01-11T14:19:34;40.63;;;28.23;;
12826;SDS011;66927;48.812;9.118;2024-01-11T14:22:00;43.80;;;28.67;;
12826;SDS011;66927;48.812;9.118;2024-01-11T14:24:26;41.97;;;27.87;;